Weather observations for the past three days for
Flagler County Airport
Imperial (Metric)
Date Time (edt) Wind (mph) Vis. (mi.) Weather Sky Cond. Temperature (ºF) Relative Humidity Wind Chill (°F) Heat Index (°F) Pressure Precipitation (in)
Air Dwpt 6 hour altimeter (in) sea level (mb) 1 hr 3 hr 6 hr
Max. Min.
10 11:50 SW 6 10.00 Partly Cloudy SCT021 82.4 71.6 70% 87 30.04 0.0
10 10:50 SW 5 10.00 Partly Cloudy SCT070 80.6 71.6 74% 85 30.03 0.0
10 09:50 SW 3 10.00 Fair CLR 75.2 73.4 94% 74 30.02 0.0
10 08:50 W 3 10.00 Fair CLR 73.4 73.4 100% 30.01 0.0
10 07:50 Calm 7.00 Fair CLR 71.6 71.6 100% 29.99 0.0
10 07:35 Calm 7.00 Fair CLR 70.5 70 98% 29.99 0.0
10 07:15 Calm 4.00 Fog/Mist SCT085 69.8 69.3 98% 29.97 0.0
10 06:55 Calm 4.00 Fog/Mist SCT085 69.6 68.9 98% 29.97 0.0
10 06:50 Calm 5.00 Fog/Mist SCT085 69.8 69.8 100% 29.97 0.0
10 06:35 Calm 5.00 Fog/Mist CLR 70.2 69.6 98% 29.96 0.0
10 06:15 Calm 4.00 Fog/Mist CLR 70 69.4 98% 29.95 0.0
10 05:55 Calm 4.00 Fog/Mist CLR 70.3 70 99% 29.94 0.0 0.01
10 05:50 Calm 5.00 Fog/Mist CLR 69.8 69.8 100% 29.95 0.0
10 05:35 Calm 5.00 Fog/Mist CLR 70.2 69.6 98% 29.94 0.0 0.01
10 05:15 Calm 7.00 Fair CLR 70.9 70.5 99% 29.94 0.0
10 04:55 S 3 7.00 Fair CLR 70.9 70.5 99% 29.93 0.0 0.01
10 04:35 Calm 7.00 Fair CLR 70.9 70.3 98% 29.93 0.0
10 04:15 Calm 7.00 Fair CLR 71.1 70.7 99% 29.92 0.0
10 03:55 S 5 7.00 Fair CLR 71.1 70.5 98% 29.92 0.0
10 03:35 S 5 7.00 Fair CLR 70.9 70.5 99% 29.93 0.0
10 03:15 Calm 7.00 Partly Cloudy SCT090 71.4 70.7 98% 29.93 0.0
10 02:55 Calm 7.00 Mostly Cloudy BKN090 71.1 70.5 98% 29.93 0.0 0.01
10 02:35 Calm 7.00 Overcast BKN080 OVC090 70.7 70.2 98% 29.95 0.0 0.01
10 02:15 Calm 7.00 Mostly Cloudy BKN080 BKN090 70.9 70.3 98% 29.95 0.0 0.01
10 01:55 Calm 7.00 Overcast OVC080 70.7 70.2 73.4 69.8 98% 29.96 0.0 0.02
10 01:35 Calm 7.00 Overcast SCT060 BKN080 OVC100 70.2 69.6 98% 29.97 0.0
10 01:15 Calm 7.00 Partly Cloudy SCT060 SCT100 70.2 69.8 99% 29.97 0.0
10 00:55 Calm 7.00 Partly Cloudy SCT065 70.5 70 98% 29.98 0.0
10 00:35 Calm 7.00 Partly Cloudy SCT070 70.7 70.2 98% 29.98 0.0
10 00:15 Calm 5.00 Fog/Mist SCT070 70.5 70 98% 29.98 0.0
09 23:55 Calm 7.00 Fair CLR 70.7 70.2 98% 29.98 0.0 0.01
09 23:35 Calm 10.00 Fair CLR 71.6 70.9 98% 29.98 0.0 0.01
09 23:15 Calm 7.00 Fair CLR 71.1 70.7 99% 29.98 0.0 0.01
09 22:55 Calm 10.00 Fair CLR 71.8 71.1 98% 29.98 0.0 0.01
09 22:35 Calm 10.00 Fair CLR 72 71.4 98% 29.97 0.0
09 22:15 Calm 10.00 Fair CLR 72.1 71.6 98% 29.97 0.0
09 21:55 Calm 10.00 Fair CLR 71.8 71.2 98% 29.96 0.0
09 18:50 Calm 10.00 Overcast OVC090 73.4 71.6 94% 29.92 0.0
09 17:50 N 6 10.00 Overcast OVC090 73.4 69.8 89% 29.91 0.0
09 16:50 N 6 10.00 Light Rain BKN012 BKN048 73.4 71.6 94% 29.92 0.0
09 15:50 N 6 3.00 Heavy Rain OVC011 OVC055 80.6 71.6 74% 85 29.9 0.0
09 14:50 W 7 10.00 Fair CLR 84.2 69.8 62% 88 29.9 0.0
09 12:50 Calm 10.00 Fair CLR 82.4 71.6 70% 87 29.93 0.0
09 11:50 W 6 10.00 Fair CLR 80.6 71.6 74% 85 29.93 0.0
09 07:50 Calm 10.00 Fair CLR 0 0 0% 0 0.0
09 06:50 Calm 7.00 Overcast OVC018 0 0 0% 0 0.0
09 05:50 Calm 7.00 Fair CLR 0 0 0% 0 0.0
08 17:50 NE 12 G 21 10.00 Overcast OVC014 OVC020 77 71.6 83% 78 29.89 0.0
08 16:50 NE 14 G 21 10.00 Overcast OVC012 78.8 71.6 79% 82 29.91 0.0
08 13:50 E 12 10.00 Mostly Cloudy BKN015 BKN023 82.4 71.6 70% 87 29.97 0.0
08 11:50 NE 10 10.00 Overcast BKN015 BKN022 OVC027 78.8 71.6 79% 82 30 0.0
08 10:50 W 7 10.00 Overcast BKN020 BKN027 OVC080 80.6 71.6 74% 85 30 0.0
08 07:35 SW 5 10.00 Mostly Cloudy BKN015 72.7 71.8 97% 29.97 0.0
08 07:15 SW 3 10.00 Overcast OVC015 72.5 71.6 97% 29.96 0.0
08 06:55 Calm 10.00 Overcast OVC013 72.1 71.2 97% 29.95 0.0
08 06:50 Calm 10.00 Overcast OVC011 71.6 71.6 100% 29.95 0.0
08 06:35 SW 5 10.00 Overcast OVC011 71.8 70.9 97% 29.94 0.0
08 06:15 Calm 10.00 Overcast OVC011 71.6 70.7 97% 29.94 0.0
08 05:55 Calm 10.00 Mostly Cloudy BKN013 70.7 70 98% 29.93 0.0
08 05:50 Calm 10.00 Partly Cloudy SCT013 69.8 69.8 100% 29.93 0.0
08 05:35 Calm 10.00 Fair CLR 70.9 70 97% 29.93 0.0
08 05:15 S 3 10.00 Partly Cloudy SCT014 70.7 69.8 97% 29.92 0.0
08 04:55 Calm 10.00 Partly Cloudy SCT014 71.2 70.2 96% 29.92 0.0
08 04:35 Calm 10.00 Fair CLR 70.9 69.8 96% 29.93 0.0
08 04:15 Calm 10.00 Fair CLR 72 70.3 95% 29.92 0.0
08 03:55 Calm 10.00 Partly Cloudy SCT080 72.1 70.3 94% 29.92 0.0
08 03:35 W 5 10.00 Partly Cloudy SCT080 72.5 70.2 92% 29.93 0.0
08 03:15 W 3 10.00 Fair CLR 72.7 70.2 92% 29.93 0.0
08 02:55 W 3 10.00 Fair CLR 72.9 70 91% 29.94 0.0
08 02:35 W 5 10.00 Fair CLR 73.4 69.6 88% 29.94 0.0
08 02:15 W 6 10.00 Fair CLR 73.4 69.3 87% 29.94 0.0
08 01:55 W 5 10.00 Fair CLR 73.8 69.1 81.5 73.8 85% 29.95 0.0
08 01:35 W 6 10.00 Fair CLR 74.3 68.5 82% 29.95 0.0
08 01:15 W 6 10.00 Fair CLR 74.5 68 80% 29.95 0.0
08 00:55 W 5 10.00 Fair CLR 74.8 67.6 78% 29.94 0.0
08 00:35 W 5 10.00 Fair CLR 75.4 67.3 76% 77 29.94 0.0
08 00:15 W 5 10.00 Fair CLR 76.1 67.1 74% 78 29.94 0.0
07 23:55 W 6 10.00 Fair CLR 76.8 66.7 71% 79 29.94 0.0
07 23:35 W 7 10.00 Fair CLR 77.4 66.4 69% 79 29.94 0.0
07 23:15 W 7 10.00 Fair CLR 77.7 65.8 67% 80 29.94 0.0
07 22:55 W 7 10.00 Fair CLR 78.3 65.1 64% 80 29.93 0.0
07 22:35 W 6 10.00 Fair CLR 78.3 63.3 60% 80 29.93 0.0
07 22:15 W 5 10.00 Fair CLR 78.1 61.7 57% 80 29.93 0.0
07 21:55 W 5 10.00 Fair CLR 79.2 59.9 52% 80 29.91 0.0
07 18:50 SE 6 10.00 Fair CLR 86 66.2 52% 88 29.89 0.0
07 17:50 NE 9 10.00 Fair CLR 86 66.2 52% 88 29.9 0.0
07 15:50 W 9 10.00 Mostly Cloudy BKN080 95 60.8 32% 95 29.9 0.0
07 13:50 W 15 G 23 10.00 Fair CLR 91.4 62.6 38% 92 29.96 0.0
07 12:50 SW 8 10.00 Fair CLR 89.6 64.4 43% 91 29.97 0.0
Date Time (edt) Wind (mph) Vis. (mi.) Weather Sky Cond. Air Dwpt Max. Min. Relative Humidity Wind Chill (°F) Heat Index (°F) altimeter (in) sea level (mb) 1 hr 3 hr 6 hr
6 hour
Temperature (ºF) Pressure Precipitation (in)